Time;durP1;ratioP1;P1;durP2;ratioP2;P2;SDS_P1;SDS_P2;PMS_P1;PMS_P2;Temp;Humidity;BMP_temperature;BMP_pressure;BME280_temperature;BME280_humidity;BME280_pressure;Samples;Min_cycle;Max_cycle;Signal;HPM_P1;HPM_P2
2022/05/31 00:00:16;;;;;;;;;;;;;;;-140.72;100.00;52636.38;4947420;29;20396;-70
2022/05/31 00:02:42;;;;;;;;;;;;;;;-140.72;100.00;52654.66;4964584;29;20568;-70
2022/05/31 00:05:09;;;;;;;;;;;;;;;-140.72;100.00;52656.69;4969676;28;19918;-71
2022/05/31 00:07:35;;;;;;;;;;;;;;;-140.72;100.00;52640.44;4970796;29;19918;-70
2022/05/31 00:10:00;;;;;;;;;;;;;;;-140.72;100.00;52646.53;4963473;29;19918;-71
2022/05/31 00:12:25;;;;;;;;;;;;;;;-140.72;100.00;52695.25;4960709;29;19919;-71
2022/05/31 00:14:50;;;;;;;;;;;;;;;-140.72;100.00;52668.84;4963319;29;19922;-71
2022/05/31 00:17:16;;;;;;;;;;;;;;;-140.72;100.00;52624.22;4956074;29;19985;-71
2022/05/31 00:19:42;;;;;;;;;;;;;;;-140.72;100.00;52634.38;4963445;29;19923;-70
2022/05/31 00:22:18;;;;;;;;;;;;;;;-140.72;100.00;52660.75;4966275;29;20259;-70
2022/05/31 00:24:43;;;;;;;;;;;;;;;-140.72;100.00;52681.03;4960556;29;19922;-70
2022/05/31 00:27:10;;;;;;;;;;;;;;;-140.72;100.00;52650.59;4964455;28;19929;-71
2022/05/31 00:29:35;;;;;;;;;;;;;;;-140.72;100.00;52648.56;4962369;29;19958;-71
2022/05/31 00:32:02;;;;;;;;;;;;;;;-140.72;100.00;52654.66;4947446;29;20334;-70
2022/05/31 00:34:28;;;;;;;;;;;;;;;-140.72;100.00;52654.66;4959935;29;19922;-71
2022/05/31 00:36:53;;;;;;;;;;;;;;;-140.72;100.00;52664.81;4964299;29;19930;-71
2022/05/31 00:39:18;;;;;;;;;;;;;;;-140.72;100.00;52650.59;4965354;29;19922;-71
2022/05/31 00:41:55;;;;;;;;;;;;;;;-140.72;100.00;52668.84;4965027;29;19926;-70
2022/05/31 00:44:26;;;;;;;;;;;;;;;-140.72;100.00;52685.09;4968747;28;19919;-71
2022/05/31 00:47:10;;;;;;;;;;;;;;;-140.72;100.00;52642.47;4968574;29;19926;-71
2022/05/31 00:49:38;;;;;;;;;;;;;;;-140.72;100.00;52662.78;4962736;29;19923;-71
2022/05/31 00:52:06;;;;;;;;;;;;;;;-140.72;100.00;52650.59;4960412;28;19942;-71
2022/05/31 00:54:34;;;;;;;;;;;;;;;-140.72;100.00;52644.50;4962956;29;19919;-70
2022/05/31 00:57:00;;;;;;;;;;;;;;;-140.72;100.00;52646.53;4961750;29;19989;-71
2022/05/31 00:59:32;;;;;;;;;;;;;;;-140.72;100.00;52634.38;4965940;29;19918;-71
2022/05/31 01:01:57;;;;;;;;;;;;;;;-140.72;100.00;52681.03;4968712;29;19949;-71
2022/05/31 01:04:29;;;;;;;;;;;;;;;-140.72;100.00;52691.19;4945662;29;19926;-71
2022/05/31 01:06:55;;;;;;;;;;;;;;;-140.72;100.00;52648.56;4948785;29;19930;-70
2022/05/31 01:09:21;;;;;;;;;;;;;;;-140.72;100.00;52605.94;4946734;29;19919;-70
2022/05/31 01:11:46;;;;;;;;;;;;;;;-140.72;100.00;52668.84;4960575;29;19922;-71
2022/05/31 01:14:13;;;;;;;;;;;;;;;-140.72;100.00;52646.53;4959469;29;20331;-71
2022/05/31 01:16:54;;;;;;;;;;;;;;;-140.72;100.00;52660.75;4970030;28;19925;-71
2022/05/31 01:19:55;;;;;;;;;;;;;;;-140.72;100.00;52634.38;4965007;29;20065;-71
2022/05/31 01:22:04;;;;;;;;;;;;;;;-140.72;100.00;52662.78;4961934;28;19914;-71
2022/05/31 01:24:31;;;;;;;;;;;;;;;-140.72;100.00;52672.91;4968047;29;20425;-71
2022/05/31 01:27:11;;;;;;;;;;;;;;;-140.72;100.00;52668.84;4967338;29;19989;-71
2022/05/31 01:29:38;;;;;;;;;;;;;;;-140.72;100.00;52676.97;4965585;28;20021;-71
2022/05/31 01:32:05;;;;;;;;;;;;;;;-140.72;100.00;52670.88;4965137;29;20045;-71
2022/05/31 01:34:49;;;;;;;;;;;;;;;-140.72;100.00;52674.94;4962712;28;19919;-71
2022/05/31 01:37:14;;;;;;;;;;;;;;;-140.72;100.00;52660.75;4959253;29;20015;-71
2022/05/31 01:39:45;;;;;;;;;;;;;;;-140.72;100.00;52652.63;4968002;28;19918;-71
2022/05/31 01:42:19;;;;;;;;;;;;;;;-140.72;100.00;52654.66;4965977;29;19954;-71
2022/05/31 01:44:45;;;;;;;;;;;;;;;-140.72;100.00;52695.25;4950477;29;20247;-71
2022/05/31 01:47:11;;;;;;;;;;;;;;;-140.72;100.00;52681.03;4962574;29;20051;-70
2022/05/31 01:49:39;;;;;;;;;;;;;;;-140.72;100.00;52650.59;4954697;29;19919;-70
2022/05/31 01:52:04;;;;;;;;;;;;;;;-140.72;100.00;52658.72;4967919;29;19919;-70
2022/05/31 01:54:30;;;;;;;;;;;;;;;-140.72;100.00;52664.81;4961969;28;19918;-70
2022/05/31 01:56:58;;;;;;;;;;;;;;;-140.72;100.00;52638.41;4967466;29;19950;-70
2022/05/31 01:59:24;;;;;;;;;;;;;;;-140.72;100.00;52636.38;4959807;29;19919;-70
2022/05/31 02:01:49;;;;;;;;;;;;;;;-140.72;100.00;52638.41;4962855;29;19934;-70
2022/05/31 02:04:16;;;;;;;;;;;;;;;-140.72;100.00;52670.88;4941924;29;19918;-70
2022/05/31 02:06:42;;;;;;;;;;;;;;;-140.72;100.00;52658.72;4960653;29;19919;-69
2022/05/31 02:09:09;;;;;;;;;;;;;;;-140.72;100.00;52660.75;4962774;29;20026;-69
2022/05/31 02:11:34;;;;;;;;;;;;;;;-140.72;100.00;52662.78;4955733;29;19947;-69
2022/05/31 02:14:00;;;;;;;;;;;;;;;-140.72;100.00;52666.84;4965256;28;19925;-70
2022/05/31 02:16:25;;;;;;;;;;;;;;;-140.72;100.00;52626.25;4967795;29;19929;-70
2022/05/31 02:21:38;;;;;;;;;;;;;;;-140.72;100.00;52683.06;4967403;28;20384;-69
2022/05/31 02:24:07;;;;;;;;;;;;;;;-140.72;100.00;52711.47;4964812;29;19934;-70
2022/05/31 02:26:32;;;;;;;;;;;;;;;-140.72;100.00;52695.25;4967173;29;19922;-69
2022/05/31 02:28:59;;;;;;;;;;;;;;;-140.72;100.00;52681.03;4966681;29;19929;-70
2022/05/31 02:31:24;;;;;;;;;;;;;;;-140.72;100.00;52658.72;4967604;28;19919;-70
2022/05/31 02:33:50;;;;;;;;;;;;;;;-140.72;100.00;52662.78;4963730;29;19919;-70
2022/05/31 02:36:15;;;;;;;;;;;;;;;-140.72;100.00;52670.88;4951324;29;19923;-70
2022/05/31 02:38:40;;;;;;;;;;;;;;;-140.72;100.00;52660.75;4959566;29;19919;-70
2022/05/31 02:41:06;;;;;;;;;;;;;;;-140.72;100.00;52652.63;4956315;29;19922;-70
2022/05/31 02:43:33;;;;;;;;;;;;;;;-140.72;100.00;52648.56;4957442;28;19923;-70
2022/05/31 02:46:00;;;;;;;;;;;;;;;-140.72;100.00;52662.78;4956849;29;20038;-70
2022/05/31 02:48:25;;;;;;;;;;;;;;;-140.72;100.00;52672.91;4966802;29;20346;-69
2022/05/31 02:50:50;;;;;;;;;;;;;;;-140.72;100.00;52656.69;4966251;29;19938;-70
2022/05/31 02:53:17;;;;;;;;;;;;;;;-140.72;100.00;52656.69;4970011;29;19954;-69
2022/05/31 02:55:42;;;;;;;;;;;;;;;-140.72;100.00;52626.25;4967481;29;20290;-70
2022/05/31 02:58:07;;;;;;;;;;;;;;;-140.72;100.00;52654.66;4963297;28;19923;-70
2022/05/31 03:00:32;;;;;;;;;;;;;;;-140.72;100.00;52689.16;4955112;29;19922;-69
2022/05/31 03:02:58;;;;;;;;;;;;;;;-140.72;100.00;52630.31;4964423;28;19922;-70
2022/05/31 03:05:23;;;;;;;;;;;;;;;-140.72;100.00;52652.63;4958325;28;19919;-70
2022/05/31 03:07:48;;;;;;;;;;;;;;;-140.72;100.00;52644.50;4959065;29;19918;-69
2022/05/31 03:10:13;;;;;;;;;;;;;;;-140.72;100.00;52652.63;4963980;28;19937;-70
2022/05/31 03:12:39;;;;;;;;;;;;;;;-140.72;100.00;52674.94;4934617;29;19945;-70
2022/05/31 03:15:07;;;;;;;;;;;;;;;-140.72;100.00;52662.78;4967924;28;20394;-70
2022/05/31 03:17:34;;;;;;;;;;;;;;;-140.72;100.00;52666.84;4932528;29;19929;-70
2022/05/31 03:20:01;;;;;;;;;;;;;;;-140.72;100.00;52695.25;4954103;29;19918;-69
2022/05/31 03:22:28;;;;;;;;;;;;;;;-140.72;100.00;52654.66;4964981;29;20302;-69
2022/05/31 03:25:00;;;;;;;;;;;;;;;-140.72;100.00;52648.56;4951289;29;19954;-69
2022/05/31 03:27:26;;;;;;;;;;;;;;;-140.72;100.00;52676.97;4951944;29;19922;-69
2022/05/31 03:29:53;;;;;;;;;;;;;;;-140.72;100.00;52664.81;4964933;29;19945;-69
2022/05/31 03:32:19;;;;;;;;;;;;;;;-140.72;100.00;52666.84;4946643;29;19918;-69
2022/05/31 03:34:44;;;;;;;;;;;;;;;-140.72;100.00;52703.34;4964976;28;19986;-70
2022/05/31 03:37:09;;;;;;;;;;;;;;;-140.72;100.00;52634.38;4964056;29;19933;-70
2022/05/31 03:39:34;;;;;;;;;;;;;;;-140.72;100.00;52662.78;4964671;29;20000;-69
2022/05/31 03:41:59;;;;;;;;;;;;;;;-140.72;100.00;52660.75;4964949;29;19918;-70
2022/05/31 03:44:25;;;;;;;;;;;;;;;-140.72;100.00;52670.88;4964971;28;19918;-69
2022/05/31 03:46:50;;;;;;;;;;;;;;;-140.72;100.00;52644.50;4947596;29;20303;-70
2022/05/31 03:49:15;;;;;;;;;;;;;;;-140.72;100.00;52658.72;4966154;29;19977;-70
2022/05/31 03:51:40;;;;;;;;;;;;;;;-140.72;100.00;52693.22;4960463;29;19919;-69
2022/05/31 03:54:06;;;;;;;;;;;;;;;-140.72;100.00;52676.97;4965078;29;19965;-70
2022/05/31 03:56:31;;;;;;;;;;;;;;;-140.72;100.00;52636.38;4966510;29;19926;-70
2022/05/31 03:58:56;;;;;;;;;;;;;;;-140.72;100.00;52662.78;4965855;29;19918;-69
2022/05/31 04:01:21;;;;;;;;;;;;;;;-140.72;100.00;52626.25;4978754;28;19935;-70
2022/05/31 04:03:47;;;;;;;;;;;;;;;-140.72;100.00;52679.00;4963131;28;19919;-70
2022/05/31 04:06:12;;;;;;;;;;;;;;;-140.72;100.00;52648.56;4964541;29;19922;-69
2022/05/31 04:08:37;;;;;;;;;;;;;;;-140.72;100.00;52628.28;4956812;29;19922;-70
2022/05/31 04:11:03;;;;;;;;;;;;;;;-140.72;100.00;52630.31;4946549;28;20069;-70
2022/05/31 04:13:28;;;;;;;;;;;;;;;-140.72;100.00;52674.94;4978178;28;20096;-70
2022/05/31 04:16:11;;;;;;;;;;;;;;;-140.72;100.00;52658.72;4950937;28;19923;-70
2022/05/31 04:18:37;;;;;;;;;;;;;;;-140.72;100.00;52614.06;4965295;29;19926;-70
2022/05/31 04:21:03;;;;;;;;;;;;;;;-140.72;100.00;52612.03;4952646;29;20026;-71
2022/05/31 04:26:13;;;;;;;;;;;;;;;-140.72;100.00;52689.16;4965143;29;20282;-70
2022/05/31 04:28:38;;;;;;;;;;;;;;;-140.72;100.00;52620.16;4951031;29;19919;-70
2022/05/31 04:31:04;;;;;;;;;;;;;;;-140.72;100.00;52683.06;4958391;29;19948;-71
2022/05/31 04:33:29;;;;;;;;;;;;;;;-140.72;100.00;52640.44;4961623;29;20002;-73
2022/05/31 04:36:02;;;;;;;;;;;;;;;-140.72;100.00;52670.88;4953866;29;19926;-72
2022/05/31 04:38:28;;;;;;;;;;;;;;;-140.72;100.00;52638.41;4963470;29;19919;-73
2022/05/31 04:40:53;;;;;;;;;;;;;;;-140.72;100.00;52670.88;4931571;29;19925;-73
2022/05/31 04:43:18;;;;;;;;;;;;;;;-140.72;100.00;52632.34;4950115;28;19926;-73
2022/05/31 04:45:43;;;;;;;;;;;;;;;-140.72;100.00;52614.06;4958751;28;20342;-74
2022/05/31 04:48:09;;;;;;;;;;;;;;;-140.72;100.00;52618.13;4962816;29;19919;-73
2022/05/31 04:50:34;;;;;;;;;;;;;;;-140.72;100.00;52642.47;4945264;29;20374;-75
2022/05/31 04:52:59;;;;;;;;;;;;;;;-140.72;100.00;52642.47;4955598;28;19929;-73
2022/05/31 04:55:25;;;;;;;;;;;;;;;-140.72;100.00;52652.63;4963707;28;20022;-73
2022/05/31 04:57:50;;;;;;;;;;;;;;;-140.72;100.00;52632.34;4960928;29;19934;-73
2022/05/31 05:00:15;;;;;;;;;;;;;;;-140.72;100.00;52642.47;4956697;29;19925;-74
2022/05/31 05:02:40;;;;;;;;;;;;;;;-140.72;100.00;52636.38;4962007;28;19926;-74
2022/05/31 05:05:07;;;;;;;;;;;;;;;-140.72;100.00;52636.38;4954367;29;19994;-73
2022/05/31 05:07:32;;;;;;;;;;;;;;;-140.72;100.00;52618.13;4939683;29;19969;-71
2022/05/31 05:09:57;;;;;;;;;;;;;;;-140.72;100.00;52628.28;4953855;29;19986;-72
2022/05/31 05:12:22;;;;;;;;;;;;;;;-140.72;100.00;52652.63;4964352;29;20286;-71
2022/05/31 05:14:47;;;;;;;;;;;;;;;-140.72;100.00;52620.16;4955866;29;19919;-70
2022/05/31 05:17:13;;;;;;;;;;;;;;;-140.72;100.00;52618.13;4965845;28;19962;-71
2022/05/31 05:19:38;;;;;;;;;;;;;;;-140.72;100.00;52571.47;4970552;28;19973;-72
2022/05/31 05:22:03;;;;;;;;;;;;;;;-140.72;100.00;52642.47;4954368;28;19919;-74
2022/05/31 05:24:28;;;;;;;;;;;;;;;-140.72;100.00;52616.09;4942664;29;19957;-70
2022/05/31 05:26:53;;;;;;;;;;;;;;;-140.72;100.00;52597.84;4957249;29;20013;-70
2022/05/31 05:32:07;;;;;;;;;;;;;;;-140.72;100.00;52622.19;4956533;29;19934;-71
2022/05/31 05:34:32;;;;;;;;;;;;;;;-140.72;100.00;52612.03;4964627;28;19929;-71
2022/05/31 05:36:57;;;;;;;;;;;;;;;-140.72;100.00;52583.63;4948364;29;19934;-70
2022/05/31 05:39:22;;;;;;;;;;;;;;;-140.72;100.00;52618.13;4941840;29;19927;-71
2022/05/31 05:41:49;;;;;;;;;;;;;;;-140.72;100.00;52601.91;4960265;29;19926;-71
2022/05/31 05:44:15;;;;;;;;;;;;;;;-140.72;100.00;52587.69;4952462;28;19982;-71
2022/05/31 05:46:40;;;;;;;;;;;;;;;-140.72;100.00;52605.94;4956685;28;19919;-71
2022/05/31 05:49:05;;;;;;;;;;;;;;;-140.72;100.00;52581.59;4957066;29;19906;-71
2022/05/31 05:51:31;;;;;;;;;;;;;;;-140.72;100.00;52597.84;4958793;29;19918;-72
2022/05/31 05:53:57;;;;;;;;;;;;;;;-140.72;100.00;52597.84;4958088;29;19925;-70
2022/05/31 05:56:22;;;;;;;;;;;;;;;-140.72;100.00;52622.19;4957757;28;19926;-70
2022/05/31 05:58:47;;;;;;;;;;;;;;;-140.72;100.00;52607.97;4955656;29;19919;-70
2022/05/31 06:01:28;;;;;;;;;;;;;;;-140.72;100.00;52565.38;4963629;28;19918;-70
2022/05/31 06:03:53;;;;;;;;;;;;;;;-140.72;100.00;52571.47;4948920;29;19973;-70
2022/05/31 06:06:20;;;;;;;;;;;;;;;-140.72;100.00;52536.97;4962382;29;19922;-70
2022/05/31 06:08:52;;;;;;;;;;;;;;;-140.72;100.00;52585.66;4956337;29;19947;-72
2022/05/31 06:11:21;;;;;;;;;;;;;;;-140.72;100.00;52573.50;4970338;29;19925;-72
2022/05/31 06:13:49;;;;;;;;;;;;;;;-140.72;100.00;52591.75;4961218;29;19954;-76
2022/05/31 06:16:15;;;;;;;;;;;;;;;-140.72;100.00;52583.63;4962820;29;19934;-72
2022/05/31 06:18:44;;;;;;;;;;;;;;;-140.72;100.00;52545.06;4969778;29;19919;-72
2022/05/31 06:21:10;;;;;;;;;;;;;;;-140.72;100.00;52565.38;4971428;29;19926;-74
2022/05/31 06:23:37;;;;;;;;;;;;;;;-140.72;100.00;52573.50;4962473;29;19919;-70
2022/05/31 06:26:03;;;;;;;;;;;;;;;-140.72;100.00;52569.44;4943836;29;20073;-70
2022/05/31 06:28:28;;;;;;;;;;;;;;;-140.72;100.00;52526.81;4945688;29;19919;-71
2022/05/31 06:30:53;;;;;;;;;;;;;;;-140.72;100.00;52510.59;4938434;29;19926;-70
2022/05/31 06:33:19;;;;;;;;;;;;;;;-140.72;100.00;52541.03;4963318;28;19923;-70
2022/05/31 06:35:44;;;;;;;;;;;;;;;-140.72;100.00;52545.06;4953543;29;20372;-70
2022/05/31 06:38:09;;;;;;;;;;;;;;;-140.72;100.00;52545.06;4951231;28;19919;-70
2022/05/31 06:40:34;;;;;;;;;;;;;;;-140.72;100.00;52545.06;4951378;28;19918;-71
2022/05/31 06:43:00;;;;;;;;;;;;;;;-140.72;100.00;52541.03;4949964;28;19926;-71
2022/05/31 06:45:25;;;;;;;;;;;;;;;-140.72;100.00;52557.25;4950521;29;19946;-70
2022/05/31 06:47:50;;;;;;;;;;;;;;;-140.72;100.00;52549.13;4946756;29;19950;-70
2022/05/31 06:50:15;;;;;;;;;;;;;;;-140.72;100.00;52536.97;4957256;28;19953;-70
2022/05/31 06:58:08;;;;;;;;;;;;;;;-140.72;100.00;52496.38;4949083;29;19946;-70
2022/05/31 07:00:34;;;;;;;;;;;;;;;-140.72;100.00;52567.41;4952785;28;19926;-71
2022/05/31 07:02:59;;;;;;;;;;;;;;;-140.72;100.00;52492.31;4964909;29;20326;-71
2022/05/31 07:05:25;;;;;;;;;;;;;;;-140.72;100.00;52518.69;4964693;28;19918;-70
2022/05/31 07:07:51;;;;;;;;;;;;;;;-140.72;100.00;52530.88;4956802;28;19959;-70
2022/05/31 07:10:16;;;;;;;;;;;;;;;-140.72;100.00;52496.38;4961691;29;20298;-70
2022/05/31 07:12:42;;;;;;;;;;;;;;;-140.72;100.00;52472.03;4956670;29;20032;-70
2022/05/31 07:15:08;;;;;;;;;;;;;;;-140.72;100.00;52502.47;4950128;28;20097;-70
2022/05/31 07:17:33;;;;;;;;;;;;;;;-140.72;100.00;52500.44;4925753;29;19922;-71
2022/05/31 07:19:58;;;;;;;;;;;;;;;-140.72;100.00;52500.44;4957222;28;20413;-71
2022/05/31 07:22:23;;;;;;;;;;;;;;;-140.72;100.00;52482.16;4970942;28;20294;-70
2022/05/31 07:24:49;;;;;;;;;;;;;;;-140.72;100.00;52459.84;4964817;29;19919;-70
2022/05/31 07:27:15;;;;;;;;;;;;;;;-140.72;100.00;52455.78;4948263;29;19942;-70
2022/05/31 07:29:40;;;;;;;;;;;;;;;-140.72;100.00;52496.38;4935897;29;20290;-70
2022/05/31 07:32:05;;;;;;;;;;;;;;;-140.72;100.00;52474.06;4958050;28;19918;-70
2022/05/31 07:34:31;;;;;;;;;;;;;;;-140.72;100.00;52435.50;4961098;28;20241;-71
2022/05/31 07:36:56;;;;;;;;;;;;;;;-140.72;100.00;52461.88;4948670;28;19943;-71
2022/05/31 07:39:22;;;;;;;;;;;;;;;-140.72;100.00;52467.97;4961961;29;19922;-71
2022/05/31 07:41:49;;;;;;;;;;;;;;;-140.72;100.00;52504.50;4961510;29;20013;-70
2022/05/31 07:44:14;;;;;;;;;;;;;;;-140.72;100.00;52467.97;4953441;29;19927;-70
2022/05/31 07:46:40;;;;;;;;;;;;;;;-140.72;100.00;52484.19;4942085;29;20293;-70
2022/05/31 07:49:05;;;;;;;;;;;;;;;-140.72;100.00;52447.69;4956401;29;19945;-71
2022/05/31 07:51:30;;;;;;;;;;;;;;;-140.72;100.00;52492.31;4961335;28;20303;-71
2022/05/31 07:53:55;;;;;;;;;;;;;;;-140.72;100.00;52417.25;4954501;29;19933;-71
2022/05/31 07:56:21;;;;;;;;;;;;;;;-140.72;100.00;52431.44;4962404;29;19953;-70
2022/05/31 07:58:46;;;;;;;;;;;;;;;-140.72;100.00;52431.44;4950297;29;19919;-70
2022/05/31 08:01:13;;;;;;;;;;;;;;;-140.72;100.00;52447.69;4959087;28;20350;-70
2022/05/31 08:03:39;;;;;;;;;;;;;;;-140.72;100.00;52417.25;4952776;29;19930;-70
2022/05/31 08:06:06;;;;;;;;;;;;;;;-140.72;100.00;52376.66;4956899;28;19918;-70
2022/05/31 08:08:32;;;;;;;;;;;;;;;-140.72;100.00;52394.91;4962793;29;20354;-70
2022/05/31 08:10:57;;;;;;;;;;;;;;;-140.72;100.00;52386.81;4949979;28;19965;-71
2022/05/31 08:13:23;;;;;;;;;;;;;;;-140.72;100.00;52401.00;4942632;29;19923;-70
2022/05/31 08:15:48;;;;;;;;;;;;;;;-140.72;100.00;52388.84;4943198;29;20010;-70
2022/05/31 08:18:13;;;;;;;;;;;;;;;-140.72;100.00;52463.91;4957214;29;20047;-70
2022/05/31 08:20:39;;;;;;;;;;;;;;;-140.72;100.00;52411.16;4953660;28;19930;-70
2022/05/31 08:23:04;;;;;;;;;;;;;;;-140.72;100.00;52392.88;4962459;28;19965;-70
2022/05/31 08:25:33;;;;;;;;;;;;;;;-140.72;100.00;52405.06;4965818;29;19919;-70
2022/05/31 08:27:59;;;;;;;;;;;;;;;-140.72;100.00;52386.81;4965980;28;19987;-71
2022/05/31 08:30:24;;;;;;;;;;;;;;;-140.72;100.00;52374.63;4961068;29;20014;-70
2022/05/31 08:32:49;;;;;;;;;;;;;;;-140.72;100.00;52405.06;4959280;28;19919;-70
2022/05/31 08:35:14;;;;;;;;;;;;;;;-140.72;100.00;52346.22;4962586;29;19938;-70
2022/05/31 08:37:40;;;;;;;;;;;;;;;-140.72;100.00;52342.16;4947741;28;19990;-70
2022/05/31 08:40:05;;;;;;;;;;;;;;;-140.72;100.00;52352.31;4931787;28;20006;-70
2022/05/31 08:42:36;;;;;;;;;;;;;;;-140.72;100.00;52374.63;4966760;28;19941;-71
2022/05/31 08:45:11;;;;;;;;;;;;;;;-140.72;100.00;52311.72;4965467;28;19949;-71
2022/05/31 08:47:45;;;;;;;;;;;;;;;-140.72;100.00;52299.56;4965667;29;19988;-71
2022/05/31 08:53:16;;;;;;;;;;;;;;;-140.72;100.00;52297.53;4963967;28;19981;-72
2022/05/31 08:58:49;;;;;;;;;;;;;;;-140.72;100.00;52293.47;4977619;28;19926;-71
2022/05/31 09:01:18;;;;;;;;;;;;;;;-140.72;100.00;52285.34;4962033;28;20437;-70
2022/05/31 09:03:53;;;;;;;;;;;;;;;-140.72;100.00;52258.97;4957366;29;19922;-70
2022/05/31 09:06:36;;;;;;;;;;;;;;;-140.72;100.00;52273.19;4966114;29;20001;-70
2022/05/31 09:09:01;;;;;;;;;;;;;;;-140.72;100.00;52265.06;4954937;28;19926;-70
2022/05/31 09:11:29;;;;;;;;;;;;;;;-140.72;100.00;52218.38;4959195;28;20026;-70
2022/05/31 09:14:14;;;;;;;;;;;;;;;-140.72;100.00;52254.91;4957595;29;19918;-70
2022/05/31 09:16:46;;;;;;;;;;;;;;;-140.72;100.00;52230.56;4967062;28;19918;-70
2022/05/31 09:19:18;;;;;;;;;;;;;;;-140.72;100.00;52161.56;4960720;28;19942;-70
2022/05/31 09:21:46;;;;;;;;;;;;;;;-140.72;100.00;52204.19;4948933;29;19930;-70
2022/05/31 09:24:13;;;;;;;;;;;;;;;-140.72;100.00;52194.03;4966873;28;19929;-70
2022/05/31 09:26:53;;;;;;;;;;;;;;;-140.72;100.00;52252.88;4976939;28;20017;-70
2022/05/31 09:29:23;;;;;;;;;;;;;;;-140.72;100.00;52269.13;4974732;28;19962;-70
2022/05/31 09:32:00;;;;;;;;;;;;;;;-140.72;100.00;52204.19;4966436;28;19973;-70
2022/05/31 09:34:31;;;;;;;;;;;;;;;-140.72;100.00;52234.63;4965672;29;19919;-71
2022/05/31 09:37:15;;;;;;;;;;;;;;;-140.72;100.00;52212.31;4963490;28;20334;-70
2022/05/31 09:39:59;;;;;;;;;;;;;;;-140.72;100.00;52167.66;4965022;28;20017;-71
2022/05/31 09:42:27;;;;;;;;;;;;;;;-140.72;100.00;52157.53;4952596;28;19945;-70
2022/05/31 09:45:00;;;;;;;;;;;;;;;-140.72;100.00;52141.28;4965737;28;20018;-70
2022/05/31 09:47:27;;;;;;;;;;;;;;;-140.72;100.00;52106.78;4947466;29;19930;-71
2022/05/31 09:49:53;;;;;;;;;;;;;;;-140.72;100.00;52118.97;4964561;28;19922;-71
2022/05/31 09:52:18;;;;;;;;;;;;;;;-140.72;100.00;52049.97;4948480;29;19930;-70
2022/05/31 09:57:50;;;;;;;;;;;;;;;-140.72;100.00;52066.22;4963462;28;19929;-70
2022/05/31 10:00:17;;;;;;;;;;;;;;;-140.72;100.00;52220.41;4944905;29;19923;-71
2022/05/31 10:02:42;;;;;;;;;;;;;;;-140.72;100.00;52183.91;4945970;28;19933;-70
2022/05/31 10:05:15;;;;;;;;;;;;;;;-140.72;100.00;52179.84;4960215;29;20382;-71
2022/05/31 10:07:41;;;;;;;;;;;;;;;-140.72;100.00;52204.19;4944977;28;19986;-71
2022/05/31 10:10:11;;;;;;;;;;;;;;;-140.72;100.00;52129.13;4950773;28;20337;-71
2022/05/31 10:12:39;;;;;;;;;;;;;;;-140.72;100.00;52192.00;4964829;28;20306;-71
2022/05/31 10:15:05;;;;;;;;;;;;;;;-140.72;100.00;52108.81;4965996;28;19955;-75
2022/05/31 10:17:42;;;;;;;;;;;;;;;-140.72;100.00;52047.97;4965860;28;19922;-71
2022/05/31 10:20:21;;;;;;;;;;;;;;;-140.72;100.00;52023.59;4965383;29;19918;-71
2022/05/31 10:22:54;;;;;;;;;;;;;;;-140.72;100.00;52013.47;4966614;29;20334;-70
2022/05/31 10:25:33;;;;;;;;;;;;;;;-140.72;100.00;52019.56;4942015;29;20313;-71
2022/05/31 10:28:00;;;;;;;;;;;;;;;-140.72;100.00;52198.09;4957830;28;19922;-71
2022/05/31 10:30:26;;;;;;;;;;;;;;;-140.72;100.00;52151.44;4946740;29;19919;-71
2022/05/31 10:32:53;;;;;;;;;;;;;;;-140.72;100.00;52082.44;4955089;28;20366;-71
2022/05/31 10:35:28;;;;;;;;;;;;;;;-140.72;100.00;52064.19;4948046;28;19972;-71
2022/05/31 10:37:58;;;;;;;;;;;;;;;-140.72;100.00;52175.78;4963724;28;19961;-70
2022/05/31 10:40:26;;;;;;;;;;;;;;;-140.72;100.00;52185.94;4963477;28;19945;-70
2022/05/31 10:42:53;;;;;;;;;;;;;;;-140.72;100.00;52285.34;4962909;28;20333;-70
2022/05/31 10:45:21;;;;;;;;;;;;;;;-140.72;100.00;52252.88;4959826;28;19934;-70
2022/05/31 10:47:46;;;;;;;;;;;;;;;-140.72;100.00;52267.09;4954008;28;20018;-69
2022/05/31 10:50:12;;;;;;;;;;;;;;;-140.72;100.00;52317.81;4957079;29;19919;-69
2022/05/31 10:52:43;;;;;;;;;;;;;;;-140.72;100.00;52321.88;4956380;29;19941;-70
2022/05/31 10:55:08;;;;;;;;;;;;;;;-140.72;100.00;52350.28;4957174;29;19925;-69
2022/05/31 10:57:50;;;;;;;;;;;;;;;-140.72;100.00;52350.28;4961507;28;19918;-69
2022/05/31 11:00:21;;;;;;;;;;;;;;;-140.72;100.00;52362.44;4958923;29;19969;-69
2022/05/31 11:02:56;;;;;;;;;;;;;;;-140.72;100.00;52346.22;4951518;28;19927;-70
2022/05/31 11:05:29;;;;;;;;;;;;;;;-140.72;100.00;52370.56;4956868;28;19906;-69
2022/05/31 11:13:28;;;;;;;;;;;;;;;-140.72;100.00;52366.50;4957685;29;19925;-69
2022/05/31 11:16:22;;;;;;;;;;;;;;;-140.72;100.00;52325.94;4956669;29;20009;-70
2022/05/31 11:19:04;;;;;;;;;;;;;;;-140.72;100.00;52311.72;4947483;28;19918;-70
2022/05/31 11:21:35;;;;;;;;;;;;;;;-140.72;100.00;52378.69;4963717;29;19918;-70
2022/05/31 11:24:12;;;;;;;;;;;;;;;-140.72;100.00;52348.25;4962937;28;20028;-70
2022/05/31 11:26:56;;;;;;;;;;;;;;;-140.72;100.00;52313.75;4963748;29;19918;-69
2022/05/31 11:29:31;;;;;;;;;;;;;;;-140.72;100.00;52317.81;4963945;28;19921;-69
2022/05/31 11:32:03;;;;;;;;;;;;;;;-140.72;100.00;52319.84;4964855;28;19948;-69
2022/05/31 11:34:29;;;;;;;;;;;;;;;-140.72;100.00;52325.94;4963376;28;19918;-69
2022/05/31 11:37:01;;;;;;;;;;;;;;;-140.72;100.00;52352.31;4945284;29;19930;-70
2022/05/31 11:39:46;;;;;;;;;;;;;;;-140.72;100.00;52356.38;4946338;29;20380;-70
2022/05/31 11:42:32;;;;;;;;;;;;;;;-140.72;100.00;52332.03;4947803;28;19923;-69
2022/05/31 11:45:10;;;;;;;;;;;;;;;-140.72;100.00;52338.09;4930350;28;20275;-69
2022/05/31 11:48:01;;;;;;;;;;;;;;;-140.72;100.00;52313.75;4955007;29;19919;-70
2022/05/31 11:50:32;;;;;;;;;;;;;;;-140.72;100.00;52334.03;4951180;29;19977;-70
2022/05/31 11:53:19;;;;;;;;;;;;;;;-140.72;100.00;52321.88;4947582;28;19931;-69
2022/05/31 11:55:52;;;;;;;;;;;;;;;-140.72;100.00;52394.91;4948335;28;19962;-70
2022/05/31 11:58:36;;;;;;;;;;;;;;;-140.72;100.00;52315.78;4955323;29;20274;-69
2022/05/31 12:01:14;;;;;;;;;;;;;;;-140.72;100.00;52382.75;4958624;29;20018;-69
2022/05/31 12:03:58;;;;;;;;;;;;;;;-140.72;100.00;52327.97;4962538;28;20005;-70
2022/05/31 12:06:27;;;;;;;;;;;;;;;-140.72;100.00;52198.09;4961723;28;19929;-70
2022/05/31 12:08:53;;;;;;;;;;;;;;;-140.72;100.00;52265.06;4952583;29;19934;-71
2022/05/31 12:11:47;;;;;;;;;;;;;;;-140.72;100.00;52297.53;4958040;28;19919;-71
2022/05/31 12:14:13;;;;;;;;;;;;;;;-140.72;100.00;52307.66;4953794;28;19952;-71
2022/05/31 12:16:40;;;;;;;;;;;;;;;-140.72;100.00;52301.59;4963943;29;19918;-71
2022/05/31 12:19:19;;;;;;;;;;;;;;;-140.72;100.00;52313.75;4957493;29;19918;-70
2022/05/31 12:22:08;;;;;;;;;;;;;;;-140.72;100.00;52321.88;4949238;28;19918;-70
2022/05/31 12:24:33;;;;;;;;;;;;;;;-140.72;100.00;52305.63;4953928;28;19926;-70
2022/05/31 12:27:05;;;;;;;;;;;;;;;-140.72;100.00;52321.88;4962866;29;19927;-70
2022/05/31 12:29:32;;;;;;;;;;;;;;;-140.72;100.00;52238.69;4953043;28;19929;-70
2022/05/31 12:32:16;;;;;;;;;;;;;;;-140.72;100.00;52206.22;4943399;29;19967;-70
2022/05/31 12:34:41;;;;;;;;;;;;;;;-140.72;100.00;52212.31;4946016;28;19933;-71
2022/05/31 12:37:09;;;;;;;;;;;;;;;-140.72;100.00;52261.00;4958715;28;19918;-70
2022/05/31 12:39:35;;;;;;;;;;;;;;;-140.72;100.00;52289.41;4963331;29;19982;-70
2022/05/31 12:42:09;;;;;;;;;;;;;;;-140.72;100.00;52358.41;4959297;28;19918;-70
2022/05/31 12:44:35;;;;;;;;;;;;;;;-140.72;100.00;52321.88;4944638;29;19986;-71
2022/05/31 12:47:19;;;;;;;;;;;;;;;-140.72;100.00;52336.06;4958700;28;19955;-70
2022/05/31 12:50:02;;;;;;;;;;;;;;;-140.72;100.00;52386.81;4960409;28;19918;-70
2022/05/31 12:55:10;;;;;;;;;;;;;;;-140.72;100.00;52384.78;4958978;28;19969;-70